Felix-Klein-Gymnasium, Gttingen, 150m NN
Donnes mto: Actuelle Mittwoch, 18.07.2018 03:59
Date Horaire Temp. E. Hum. E. P.atmo. Pluie Vent Direction Direction Ensoleilleme P. de rose Temp au vent Rafales
18.07.2018 03:59 20,0 C 74 % 1013,4 hPa 0,0 mm 6,7 km/h (2 Bft) S-SO 205 0 min 15,2 C 20,0 C 12,9 km/h (3 Bft)
18.07.2018 03:45 20,3 C 72 % 1013,3 hPa 0,0 mm 3,6 km/h (1 Bft) SO 226 0 min 15,1 C 20,3 C 11,3 km/h (2 Bft)
18.07.2018 03:30 20,4 C 71 % 1013,4 hPa 0,0 mm 7,8 km/h (2 Bft) SO 228 0 min 15,0 C 20,4 C 16,1 km/h (3 Bft)
18.07.2018 03:15 20,6 C 70 % 1013,2 hPa 0,0 mm 3,7 km/h (1 Bft) S-SO 212 0 min 14,9 C 20,6 C 11,3 km/h (2 Bft)
18.07.2018 02:59 20,7 C 69 % 1013,2 hPa 0,0 mm 5,0 km/h (1 Bft) S-SO 195 0 min 14,8 C 20,7 C 12,9 km/h (3 Bft)
18.07.2018 02:45 20,7 C 67 % 1013,1 hPa 0,0 mm 8,9 km/h (2 Bft) S-SE 151 0 min 14,3 C 20,7 C 20,9 km/h (4 Bft)
18.07.2018 02:30 20,8 C 65 % 1013,2 hPa 0,0 mm 6,2 km/h (2 Bft) S 179 0 min 14,0 C 20,8 C 16,1 km/h (3 Bft)
18.07.2018 02:15 20,8 C 64 % 1013,2 hPa 0,0 mm 5,3 km/h (1 Bft) S-SE 161 0 min 13,7 C 20,8 C 12,9 km/h (3 Bft)
18.07.2018 01:59 21,1 C 63 % 1013,2 hPa 0,0 mm 6,5 km/h (2 Bft) S-SO 209 0 min 13,8 C 21,1 C 17,7 km/h (3 Bft)
18.07.2018 01:45 21,2 C 62 % 1013,0 hPa 0,0 mm 4,5 km/h (1 Bft) S-SO 200 0 min 13,6 C 21,2 C 11,3 km/h (2 Bft)
18.07.2018 01:30 21,3 C 61 % 1012,7 hPa 0,0 mm 2,0 km/h (1 Bft) S 191 0 min 13,5 C 21,3 C 12,9 km/h (3 Bft)
18.07.2018 01:15 21,7 C 59 % 1012,6 hPa 0,0 mm 0,0 km/h (0 Bft) S 187 0 min 13,3 C 21,7 C 0,0 km/h (0 Bft)
18.07.2018 00:59 21,8 C 58 % 1012,5 hPa 0,0 mm 0,2 km/h (0 Bft) S 186 0 min 13,2 C 21,8 C 4,8 km/h (1 Bft)
18.07.2018 00:45 22,1 C 56 % 1012,4 hPa 0,0 mm 0,3 km/h (0 Bft) S 184 0 min 12,9 C 22,1 C 6,4 km/h (2 Bft)
18.07.2018 00:30 22,4 C 55 % 1012,3 hPa 0,0 mm 2,5 km/h (1 Bft) S 182 0 min 12,9 C 22,4 C 9,7 km/h (2 Bft)
18.07.2018 00:15 22,7 C 53 % 1012,2 hPa 0,0 mm 4,7 km/h (1 Bft) S-SO 195 0 min 12,6 C 22,7 C 11,3 km/h (2 Bft)
18.07.2018 00:00 23,1 C 52 % 1012,1 hPa 0,0 mm 6,3 km/h (2 Bft) SO 214 0 min 12,7 C 23,1 C 12,9 km/h (3 Bft)
17.07.2018 22:45 24,3 C 48 % 1011,3 hPa 0,0 mm 0,0 km/h (0 Bft) S-SE 159 0 min 12,6 C 24,3 C 1,6 km/h (1 Bft)
17.07.2018 22:30 24,6 C 47 % 1011,1 hPa 0,0 mm 0,5 km/h (0 Bft) S-SE 159 0 min 12,5 C 24,6 C 4,8 km/h (1 Bft)
17.07.2018 22:15 25,0 C 45 % 1011,1 hPa 0,0 mm 0,4 km/h (0 Bft) S-SE 156 0 min 12,2 C 25,0 C 6,4 km/h (2 Bft)
17.07.2018 22:00 25,3 C 44 % 1011,0 hPa 0,0 mm 1,2 km/h (1 Bft) S-SE 157 0 min 12,2 C 25,3 C 6,4 km/h (2 Bft)
17.07.2018 21:45 25,6 C 43 % 1010,9 hPa 0,0 mm 0,9 km/h (0 Bft) S-SE 158 0 min 12,1 C 25,6 C 6,4 km/h (2 Bft)
17.07.2018 21:30 25,9 C 42 % 1010,7 hPa 0,0 mm 1,6 km/h (1 Bft) S-SE 150 0 min 12,0 C 25,9 C 9,7 km/h (2 Bft)
17.07.2018 21:15 26,3 C 41 % 1010,7 hPa 0,0 mm 6,4 km/h (2 Bft) S-SE 153 15 min 12,0 C 26,3 C 14,5 km/h (3 Bft)
17.07.2018 21:00 26,6 C 40 % 1010,4 hPa 0,0 mm 4,7 km/h (1 Bft) S-SE 155 0 min 11,9 C 26,6 C 12,9 km/h (3 Bft)
17.07.2018 20:45 26,9 C 39 % 1010,3 hPa 0,0 mm 5,4 km/h (1 Bft) SE 146 0 min 11,8 C 26,9 C 12,9 km/h (3 Bft)
17.07.2018 20:30 27,1 C 38 % 1010,2 hPa 0,0 mm 7,9 km/h (2 Bft) SE 143 0 min 11,5 C 27,1 C 17,7 km/h (3 Bft)
17.07.2018 20:15 27,4 C 37 % 1010,1 hPa 0,0 mm 10,7 km/h (2 Bft) SE 134 0 min 11,4 C 27,4 C 19,3 km/h (3 Bft)
17.07.2018 20:00 27,8 C 36 % 1010,0 hPa 0,0 mm 10,6 km/h (2 Bft) S-SE 166 0 min 11,3 C 27,8 C 20,9 km/h (4 Bft)
17.07.2018 19:45 27,9 C 36 % 1009,9 hPa 0,0 mm 11,2 km/h (2 Bft) S-SE 149 15 min 11,4 C 27,9 C 20,9 km/h (4 Bft)
17.07.2018 19:30 27,9 C 35 % 1009,9 hPa 0,0 mm 17,5 km/h (3 Bft) S-SE 166 0 min 11,0 C 27,9 C 27,4 km/h (4 Bft)
17.07.2018 19:15 28,4 C 34 % 1010,0 hPa 0,0 mm 16,3 km/h (3 Bft) S-SE 165 0 min 11,0 C 28,4 C 27,4 km/h (4 Bft)
17.07.2018 19:00 29,0 C 33 % 1009,9 hPa 0,0 mm 13,4 km/h (3 Bft) S-SE 160 15 min 11,1 C 29,0 C 27,4 km/h (4 Bft)
17.07.2018 18:45 28,8 C 33 % 1009,9 hPa 0,0 mm 13,0 km/h (3 Bft) S 179 15 min 10,9 C 28,8 C 24,1 km/h (4 Bft)
17.07.2018 18:30 28,6 C 33 % 1009,9 hPa 0,0 mm 17,7 km/h (3 Bft) S-SE 157 0 min 10,7 C 28,6 C 33,8 km/h (5 Bft)
17.07.2018 18:15 29,4 C 31 % 1009,9 hPa 0,0 mm 11,2 km/h (2 Bft) S-SE 155 15 min 10,5 C 29,4 C 20,9 km/h (4 Bft)
17.07.2018 18:00 29,2 C 31 % 1009,9 hPa 0,0 mm 14,2 km/h (3 Bft) S 179 0 min 10,3 C 29,2 C 24,1 km/h (4 Bft)
17.07.2018 17:45 29,2 C 31 % 1009,8 hPa 0,0 mm 13,8 km/h (3 Bft) S 178 0 min 10,3 C 29,2 C 27,4 km/h (4 Bft)
17.07.2018 17:30 29,5 C 30 % 1009,8 hPa 0,0 mm 15,3 km/h (3 Bft) S 182 15 min 10,1 C 29,5 C 27,4 km/h (4 Bft)
17.07.2018 17:15 29,8 C 29 % 1009,8 hPa 0,0 mm 17,4 km/h (3 Bft) S-SE 158 15 min 9,8 C 29,8 C 32,2 km/h (5 Bft)
17.07.2018 17:00 30,3 C 28 % 1009,8 hPa 0,0 mm 13,3 km/h (3 Bft) SE 137 15 min 9,7 C 30,3 C 27,4 km/h (4 Bft)
17.07.2018 16:45 29,9 C 28 % 1009,8 hPa 0,0 mm 15,1 km/h (3 Bft) SE 142 15 min 9,4 C 29,9 C 29,0 km/h (5 Bft)
17.07.2018 16:30 29,9 C 28 % 1009,9 hPa 0,0 mm 17,5 km/h (3 Bft) S 171 15 min 9,4 C 29,9 C 30,6 km/h (5 Bft)
17.07.2018 16:15 30,0 C 28 % 1009,8 hPa 0,0 mm 15,7 km/h (3 Bft) S 170 15 min 9,5 C 30,0 C 27,4 km/h (4 Bft)
17.07.2018 16:00 29,9 C 28 % 1009,9 hPa 0,0 mm 17,9 km/h (3 Bft) S 180 15 min 9,4 C 29,9 C 32,2 km/h (5 Bft)
17.07.2018 15:45 30,3 C 28 % 1009,8 hPa 0,0 mm 15,0 km/h (3 Bft) S 180 15 min 9,7 C 30,3 C 30,6 km/h (5 Bft)
17.07.2018 15:30 30,0 C 26 % 1009,8 hPa 0,0 mm 14,2 km/h (3 Bft) S 173 15 min 8,4 C 30,0 C 32,2 km/h (5 Bft)
17.07.2018 15:15 30,2 C 28 % 1009,8 hPa 0,0 mm 9,9 km/h (2 Bft) SE 126 15 min 9,6 C 30,2 C 22,5 km/h (4 Bft)
17.07.2018 15:00 30,2 C 26 % 1009,9 hPa 0,0 mm 10,5 km/h (2 Bft) S-SO 205 15 min 8,5 C 30,2 C 29,0 km/h (5 Bft)
17.07.2018 14:45 29,8 C 27 % 1009,9 hPa 0,0 mm 9,4 km/h (2 Bft) S 187 15 min 8,8 C 29,8 C 22,5 km/h (4 Bft)
17.07.2018 14:30 29,1 C 29 % 1009,9 hPa 0,0 mm 11,9 km/h (2 Bft) SO 227 15 min 9,2 C 29,1 C 25,7 km/h (4 Bft)
17.07.2018 14:15 29,1 C 29 % 1010,1 hPa 0,0 mm 12,1 km/h (2 Bft) S 171 15 min 9,2 C 29,1 C 29,0 km/h (5 Bft)
17.07.2018 14:00 29,4 C 28 % 1010,2 hPa 0,0 mm 10,8 km/h (2 Bft) S-SE 164 15 min 9,0 C 29,4 C 25,7 km/h (4 Bft)
17.07.2018 13:45 29,1 C 27 % 1010,4 hPa 0,0 mm 12,4 km/h (3 Bft) S-SE 153 15 min 8,2 C 29,1 C 24,1 km/h (4 Bft)
17.07.2018 13:30 28,9 C 29 % 1010,4 hPa 0,0 mm 11,2 km/h (2 Bft) SE 131 15 min 9,1 C 28,9 C 27,4 km/h (4 Bft)
17.07.2018 13:15 28,7 C 31 % 1010,4 hPa 0,0 mm 12,2 km/h (2 Bft) S 171 15 min 9,9 C 28,7 C 24,1 km/h (4 Bft)
17.07.2018 13:00 28,7 C 34 % 1010,4 hPa 0,0 mm 7,6 km/h (2 Bft) SE 144 15 min 11,3 C 28,7 C 19,3 km/h (3 Bft)
17.07.2018 12:45 27,9 C 34 % 1010,6 hPa 0,0 mm 6,2 km/h (2 Bft) S 169 15 min 10,6 C 27,9 C 17,7 km/h (3 Bft)
17.07.2018 12:30 27,9 C 36 % 1010,6 hPa 0,0 mm 5,2 km/h (1 Bft) SE 139 15 min 11,4 C 27,9 C 17,7 km/h (3 Bft)
17.07.2018 12:15 27,3 C 40 % 1010,5 hPa 0,0 mm 6,9 km/h (2 Bft) S 190 15 min 12,5 C 27,3 C 19,3 km/h (3 Bft)
17.07.2018 12:00 27,1 C 39 % 1010,5 hPa 0,0 mm 2,9 km/h (1 Bft) O-SO 246 15 min 11,9 C 27,1 C 11,3 km/h (2 Bft)
17.07.2018 11:45 27,1 C 38 % 1010,6 hPa 0,0 mm 3,8 km/h (1 Bft) SE 126 15 min 11,5 C 27,1 C 12,9 km/h (3 Bft)
17.07.2018 11:30 26,8 C 41 % 1010,6 hPa 0,0 mm 2,6 km/h (1 Bft) SE 139 15 min 12,4 C 26,8 C 11,3 km/h (2 Bft)
17.07.2018 11:15 26,2 C 45 % 1010,7 hPa 0,0 mm 2,7 km/h (1 Bft) O-SO 243 15 min 13,3 C 26,2 C 9,7 km/h (2 Bft)
17.07.2018 11:00 25,4 C 49 % 1010,7 hPa 0,0 mm 4,7 km/h (1 Bft) S 171 15 min 13,9 C 25,4 C 12,9 km/h (3 Bft)
17.07.2018 10:45 24,9 C 53 % 1010,7 hPa 0,0 mm 0,4 km/h (0 Bft) O 271 15 min 14,6 C 24,9 C 4,8 km/h (1 Bft)
17.07.2018 10:30 24,4 C 55 % 1010,7 hPa 0,0 mm 2,0 km/h (1 Bft) O-SO 240 15 min 14,8 C 24,4 C 8,0 km/h (2 Bft)
17.07.2018 10:15 23,6 C 56 % 1010,7 hPa 0,0 mm 1,1 km/h (1 Bft) S-SO 209 15 min 14,3 C 23,6 C 6,4 km/h (2 Bft)
17.07.2018 10:00 23,3 C 58 % 1010,8 hPa 0,0 mm 0,3 km/h (0 Bft) S 169 15 min 14,6 C 23,3 C 4,8 km/h (1 Bft)
17.07.2018 09:45 22,4 C 60 % 1010,8 hPa 0,0 mm 0,8 km/h (0 Bft) SE 146 15 min 14,2 C 22,4 C 6,4 km/h (2 Bft)
17.07.2018 09:30 22,7 C 59 % 1010,8 hPa 0,0 mm 0,0 km/h (0 Bft) NE 49 15 min 14,3 C 22,7 C 1,6 km/h (1 Bft)
17.07.2018 09:15 21,3 C 63 % 1010,9 hPa 0,0 mm 0,0 km/h (0 Bft) NE 51 15 min 14,0 C 21,3 C 1,6 km/h (1 Bft)
17.07.2018 09:00 20,9 C 66 % 1010,9 hPa 0,0 mm 0,0 km/h (0 Bft) NE 40 15 min 14,3 C 20,9 C 1,6 km/h (1 Bft)
17.07.2018 08:45 20,1 C 68 % 1010,8 hPa 0,0 mm 0,3 km/h (0 Bft) NE 36 15 min 14,0 C 20,1 C 4,8 km/h (1 Bft)
17.07.2018 08:30 19,6 C 70 % 1010,9 hPa 0,0 mm 0,8 km/h (0 Bft) NE 42 0 min 14,0 C 19,6 C 6,4 km/h (2 Bft)
17.07.2018 08:15 18,5 C 74 % 1010,9 hPa 0,0 mm 0,0 km/h (0 Bft) NE 54 0 min 13,8 C 18,5 C 1,6 km/h (1 Bft)
17.07.2018 08:00 17,6 C 78 % 1010,9 hPa 0,0 mm 0,0 km/h (0 Bft) NE 54 0 min 13,7 C 17,6 C 0,0 km/h (0 Bft)
17.07.2018 07:45 16,4 C 81 % 1010,8 hPa 0,0 mm 0,0 km/h (0 Bft) NE 53 15 min 13,1 C 16,4 C 1,6 km/h (1 Bft)
17.07.2018 07:30 15,9 C 82 % 1010,8 hPa 0,0 mm 0,2 km/h (0 Bft) NE 53 15 min 12,8 C 15,9 C 4,8 km/h (1 Bft)
17.07.2018 07:15 15,2 C 84 % 1010,7 hPa 0,0 mm 0,0 km/h (0 Bft) NE 49 0 min 12,5 C 15,2 C 0,0 km/h (0 Bft)
17.07.2018 07:00 14,7 C 85 % 1010,8 hPa 0,0 mm 0,6 km/h (0 Bft) NE 47 0 min 12,2 C 14,7 C 4,8 km/h (1 Bft)
17.07.2018 06:45 14,5 C 86 % 1010,6 hPa 0,0 mm 0,0 km/h (0 Bft) NE 46 0 min 12,2 C 14,5 C 1,6 km/h (1 Bft)
17.07.2018 06:30 14,3 C 85 % 1010,6 hPa 0,0 mm 1,9 km/h (1 Bft) NE 45 0 min 11,8 C 14,3 C 8,0 km/h (2 Bft)
17.07.2018 06:15 14,6 C 87 % 1010,6 hPa 0,0 mm 0,0 km/h (0 Bft) NE 51 0 min 12,5 C 14,6 C 1,6 km/h (1 Bft)
17.07.2018 06:00 14,4 C 86 % 1010,5 hPa 0,0 mm 0,0 km/h (0 Bft) NE 52 0 min 12,1 C 14,4 C 1,6 km/h (1 Bft)
17.07.2018 05:45 14,4 C 86 % 1010,5 hPa 0,0 mm 0,0 km/h (0 Bft) NE 51 0 min 12,1 C 14,4 C 0,0 km/h (0 Bft)
17.07.2018 05:30 14,4 C 85 % 1010,4 hPa 0,0 mm 0,0 km/h (0 Bft) NE 51 0 min 11,9 C 14,4 C 0,0 km/h (0 Bft)
17.07.2018 05:15 14,5 C 85 % 1010,4 hPa 0,0 mm 0,0 km/h (0 Bft) NE 51 0 min 12,0 C 14,5 C 0,0 km/h (0 Bft)
17.07.2018 05:00 14,5 C 85 % 1010,2 hPa 0,0 mm 0,0 km/h (0 Bft) NE 51 0 min 12,0 C 14,5 C 1,6 km/h (1 Bft)
17.07.2018 04:44 14,5 C 85 % 1010,2 hPa 0,0 mm 0,0 km/h (0 Bft) NE 51 0 min 12,0 C 14,5 C 0,0 km/h (0 Bft)
17.07.2018 04:30 14,7 C 85 % 1010,1 hPa 0,0 mm 0,0 km/h (0 Bft) NE 51 0 min 12,2 C 14,7 C 1,6 km/h (1 Bft)
17.07.2018 04:15 15,1 C 83 % 1010,1 hPa 0,0 mm 0,0 km/h (0 Bft) NE 51 0 min 12,2 C 15,1 C 1,6 km/h (1 Bft)
17.07.2018 04:00 15,4 C 83 % 1010,1 hPa 0,0 mm 0,0 km/h (0 Bft) NE 49 0 min 12,5 C 15,4 C 1,6 km/h (1 Bft)
_ Min-Heure 06:30 15:00 15:15 - 04:00 - - - 13:45 06:30 04:44
Minimum _ 14,3 C 26 % 1009,8 hPa - 0,0 km/h (0 Bft) - - - 8,2 C 14,3 C 0,0 km/h (0 Bft)
_ Max-Heure 15:45 06:15 03:30 04:00 16:00 - - 07:30 03:59 15:45 18:30
Maximum _ 30,3 C 87 % 1013,4 hPa 0,0 mm 17,9 km/h
S (3 Bft)
- - 15 min 15,2 C 30,3 C 33,8 km/h
S-SE (5 Bft)
Moyenne _ 23,2 C 54 % 1010,8 hPa #0,0 mm 5,5 km/h (1 Bft) S - #0 min. 12,1 C 23,2 C 12,9 km/h (3 Bft)